Pagrindinis puslapis
METAR-TAF:

METAR-TAF

Oro uostai :

Crestview, Florida, Jungtinės Amerikos Valstijos

platuma: 30-46-20N, ilguma: 086-31-12W, Aukštis: 65 m

Dabartinis oras

Ataskaita buvo paskelbta 31 minutes, ne 17:53 UTC
Vėjas 4 kt nuo kintamojo kryptimis
Temperatūra 21°C
Drėgmė 46%
Slėgis 1016 hPa
Matomumas: 16.1 km
Giedras dangus

METAR: KCEW 171753Z AUTO VRB04KT 10SM CLR 21/09 A2999 RMK AO2 SLP155 T02110089 10217 20106 58022

Laikas: 13:24 (18:24 UTC)


TAF: trūkstamas

Orai ataskaitas ir orų prognozės (METAR, TAF).

turimą stotys yra geltonos ir raudonos taškus žemėlapyje.

Perkelti pele per norėdami pamatyti stoties vardą.

Tada spustelėkite, norėdami matyti oro stebėjimo ir prognozės.

Norėdami pakeisti žemėlapį: spustelėkite ant žalios mygtukų su juodo kryžiaus žemyn,; žalią mygtuką su brūkšneliu, jei norite nutolinti; arba žalių rodyklių gretimoms žemėlapius.


METAR-TAF: